Detall de PIREP

Printer-friendly versionPDF version

[2010/11/19 11:37:00]
Flight IATA:CT2101
Pilot Number:042
Company ICAO:CAT
Aircraft Type:B763/F
PAX:100
Departing Airport: LEAS
Destination Airport: LEVC
Alternate Airport:LEPA
Online: VATSIM
Route:XONDA/N380F220 R107 ROVAK/N430F340 UM30 ZMR UL155 KALMA UH100 CJN UN733 CLS
Flight Level:FL340
No Slew and time accel
No pause
Crash detect
Detect pilot in Cockpit between each 30 and 45 minutes
11:37 Zero fuel Weight: 244975 Lbs, Fuel Weight: 141633 Lbs
11:37 VATSIM:LEAS 191100Z VRB01KT 8000 DZ SCT054 BKN060 11/08 Q1011 NOSIG
11:37 VATSIM:LEVC 191100Z VRB01KT CAVOK 11/05 Q1018 NOSIG
11:37 VOICE CATALONIAN
11:44 Parking Brakes off
11:49 Take-off
11:49 Take off Weight: 383982 Lbs
11:49 Wind: 000 @ 000 Knots Heading: 287
11:49 POS N43 33 59 W006 02 51
11:49 Gear Up: 187 Knots
11:49 Flaps:3 at 187 Knots
11:49 Flaps:2 at 189 Knots
11:49 Flaps:1 at 203 Knots
11:49 Gear Down: 227 Knots
11:49 Gear Up: 212 Knots
11:50 Flaps:0 at 174 Knots
12:04 Wind:247@041 Knots Heading: 177 Ground Speed: 429 Knots Altitude 33080 ft
12:04 TOC
12:04 Fuel Weight: 131173 Lb
12:19 Wind:292@075 Knots Heading: 142 Ground Speed: 517 Knots Altitude 34071 ft
12:33 TOD
12:33 Fuel Weight: 125636 Lb
12:34 Wind:270@060 Knots Heading: 122 Ground Speed: 486 Knots Altitude 33034 ft
12:49 Wind:233@017 Knots Heading: 132 Ground Speed: 271 Knots Altitude 14068 ft
12:50 Flaps:1 at 216 Knots
12:50 Flaps:2 at 214 Knots
12:54 Flaps:3 at 204 Knots
12:56 Gear Down: 192 Knots
12:56 Flaps:4 at 172 Knots
12:57 Flaps:5 at 159 Knots
12:57 Flaps:6 at 158 Knots
13:00 TouchDown:Rate -186 ft/min Speed: 131 Knots
13:00 VATSIM:LEVC 191230Z 33003KT 290V010 CAVOK 13/04 Q1016 NOSIG
13:00 Land
13:00 Wind:254@003 Knots
13:00 Heading: 295
13:00 Flight Duration: 01:11
13:00 Landing Weight: 367942 Lbs
13:00 POS N39 29 21 W000 28 54
13:03 Parking brakes on
13:03 Block to Block Duration: 01:19
13:03 Final Fuel: 122546 Lbls
13:03 Spent Fuel: 19087 Lbls
13:03 Flight Length: 394 NM
13:03 TOD Land Length: 63 NM

Exportar CSV

Powered by Drupal - Modified by Danger4k